Time;durP1;ratioP1;P1;durP2;ratioP2;P2;SDS_P1;SDS_P2;PMS_P1;PMS_P2;Temp;Humidity;BMP_temperature;BMP_pressure;BME280_temperature;BME280_humidity;BME280_pressure;Samples;Min_cycle;Max_cycle;Signal;HPM_P1;HPM_P2
2022/03/09 00:02:20;;;;;;;9.80;5.63;;;;;;;;;;4992313;28;20529;-37
2022/03/09 00:04:45;;;;;;;8.27;3.95;;;;;;;;;;4991986;28;20031;-37
2022/03/09 00:07:11;;;;;;;9.65;4.00;;;;;;;;;;4992167;28;20014;-36
2022/03/09 00:09:36;;;;;;;7.50;5.20;;;;;;;;;;4992148;28;20485;-36
2022/03/09 00:12:03;;;;;;;8.25;3.88;;;;;;;;;;4992078;28;20019;-36
2022/03/09 00:14:28;;;;;;;12.20;4.93;;;;;;;;;;4991928;28;20546;-37
2022/03/09 00:16:54;;;;;;;9.07;4.45;;;;;;;;;;4991850;28;20018;-36
2022/03/09 00:19:19;;;;;;;8.85;3.42;;;;;;;;;;4991935;28;20042;-36
2022/03/09 00:21:45;;;;;;;10.90;4.15;;;;;;;;;;4995083;28;20022;-36
2022/03/09 00:24:11;;;;;;;7.63;4.70;;;;;;;;;;4995779;28;20053;-37
2022/03/09 00:26:36;;;;;;;10.68;4.53;;;;;;;;;;4995791;28;20030;-37
2022/03/09 00:29:02;;;;;;;8.45;4.45;;;;;;;;;;4995911;28;20113;-37
2022/03/09 00:31:28;;;;;;;9.20;5.13;;;;;;;;;;4996007;28;20026;-36
2022/03/09 00:33:53;;;;;;;10.25;4.90;;;;;;;;;;4995564;28;20555;-36
2022/03/09 00:36:18;;;;;;;8.05;5.47;;;;;;;;;;4995710;28;20033;-36
2022/03/09 00:38:44;;;;;;;5.20;3.05;;;;;;;;;;4995451;28;20034;-37
2022/03/09 00:41:09;;;;;;;9.55;4.47;;;;;;;;;;4995477;28;20444;-37
2022/03/09 00:43:36;;;;;;;9.27;3.65;;;;;;;;;;5010674;28;20034;-37
2022/03/09 00:46:02;;;;;;;6.13;3.40;;;;;;;;;;4995274;28;20548;-37
2022/03/09 00:48:28;;;;;;;7.95;2.80;;;;;;;;;;4995708;28;20022;-36
2022/03/09 00:50:54;;;;;;;7.32;3.97;;;;;;;;;;4995275;28;20018;-37
2022/03/09 00:53:19;;;;;;;10.45;3.83;;;;;;;;;;4995527;28;20030;-37
2022/03/09 00:55:45;;;;;;;9.10;4.43;;;;;;;;;;4995563;28;20030;-36
2022/03/09 00:58:10;;;;;;;10.27;4.07;;;;;;;;;;4995082;28;20482;-36
2022/03/09 01:00:36;;;;;;;7.63;4.00;;;;;;;;;;4995196;28;20031;-36
2022/03/09 01:03:01;;;;;;;9.05;4.43;;;;;;;;;;4995121;28;20035;-36
2022/03/09 01:05:27;;;;;;;10.95;4.15;;;;;;;;;;4995171;28;20041;-36
2022/03/09 01:07:52;;;;;;;9.05;4.43;;;;;;;;;;4995054;28;20389;-37
2022/03/09 01:10:18;;;;;;;8.13;4.03;;;;;;;;;;4995021;28;20022;-37
2022/03/09 01:12:45;;;;;;;12.77;4.55;;;;;;;;;;4995120;28;20042;-36
2022/03/09 01:15:11;;;;;;;6.20;3.67;;;;;;;;;;4993578;28;20046;-37
2022/03/09 01:17:36;;;;;;;7.53;4.22;;;;;;;;;;4995097;28;20141;-37
2022/03/09 01:20:02;;;;;;;6.65;3.30;;;;;;;;;;4994848;28;20152;-36
2022/03/09 01:22:28;;;;;;;9.38;4.38;;;;;;;;;;4994707;28;20035;-37
2022/03/09 01:24:53;;;;;;;8.65;4.30;;;;;;;;;;4995046;28;20437;-36
2022/03/09 01:27:19;;;;;;;9.75;3.60;;;;;;;;;;4994701;28;20033;-36
2022/03/09 01:29:44;;;;;;;7.15;3.90;;;;;;;;;;4994882;28;20057;-36
2022/03/09 01:32:10;;;;;;;15.48;4.28;;;;;;;;;;5008342;28;20026;-36
2022/03/09 01:34:35;;;;;;;7.65;3.72;;;;;;;;;;4994859;28;20393;-36
2022/03/09 01:37:01;;;;;;;5.35;2.97;;;;;;;;;;4994411;28;20552;-36
2022/03/09 01:39:26;;;;;;;8.15;3.90;;;;;;;;;;4994704;28;20046;-36
2022/03/09 01:41:52;;;;;;;7.15;3.72;;;;;;;;;;4994410;28;20030;-37
2022/03/09 01:44:22;;;;;;;5.97;3.53;;;;;;;;;;4994496;28;20080;-37
2022/03/09 01:46:51;;;;;;;8.55;4.07;;;;;;;;;;4994602;28;20066;-37
2022/03/09 01:49:17;;;;;;;7.05;3.47;;;;;;;;;;4994327;28;20552;-36
2022/03/09 01:51:44;;;;;;;6.18;3.88;;;;;;;;;;4994294;28;20045;-36
2022/03/09 01:54:09;;;;;;;7.68;3.42;;;;;;;;;;4994154;28;20066;-37
2022/03/09 01:56:35;;;;;;;9.10;4.03;;;;;;;;;;4993087;28;20057;-36
2022/03/09 01:59:04;;;;;;;5.28;3.63;;;;;;;;;;4993807;28;20385;-37
2022/03/09 02:01:29;;;;;;;7.50;4.25;;;;;;;;;;4994421;28;20031;-36
2022/03/09 02:03:56;;;;;;;9.13;4.25;;;;;;;;;;4994249;28;20091;-36
2022/03/09 02:06:21;;;;;;;5.72;3.53;;;;;;;;;;4993993;28;20536;-36
2022/03/09 02:11:32;;;;;;;8.75;4.20;;;;;;;;;;4993993;28;20026;-36
2022/03/09 02:13:57;;;;;;;7.68;3.35;;;;;;;;;;4994027;28;20045;-37
2022/03/09 02:16:22;;;;;;;10.77;3.83;;;;;;;;;;4993882;28;20362;-38
2022/03/09 02:18:48;;;;;;;5.40;2.72;;;;;;;;;;4993673;28;20428;-36
2022/03/09 02:21:15;;;;;;;6.95;3.58;;;;;;;;;;4994163;28;20026;-36
2022/03/09 02:23:40;;;;;;;4.93;2.90;;;;;;;;;;4993850;28;20027;-37
2022/03/09 02:26:06;;;;;;;6.03;3.65;;;;;;;;;;4993866;28;20037;-36
2022/03/09 02:28:36;;;;;;;9.68;4.20;;;;;;;;;;4993476;28;20022;-36
2022/03/09 02:31:01;;;;;;;5.57;3.55;;;;;;;;;;4993567;28;20093;-36
2022/03/09 02:33:27;;;;;;;11.32;4.88;;;;;;;;;;4993495;28;20030;-36
2022/03/09 02:35:52;;;;;;;7.00;3.45;;;;;;;;;;4993288;28;20034;-36
2022/03/09 02:38:17;;;;;;;8.05;4.20;;;;;;;;;;4993731;28;20045;-36
2022/03/09 02:40:43;;;;;;;9.20;3.35;;;;;;;;;;4993278;28;20500;-37
2022/03/09 02:43:08;;;;;;;5.22;3.58;;;;;;;;;;4992823;28;20113;-36
2022/03/09 02:45:34;;;;;;;10.57;4.18;;;;;;;;;;4993162;28;20050;-37
2022/03/09 02:48:00;;;;;;;13.65;3.97;;;;;;;;;;4993016;28;20437;-36
2022/03/09 02:50:26;;;;;;;7.78;4.10;;;;;;;;;;4993160;28;20026;-36
2022/03/09 02:52:51;;;;;;;8.18;3.75;;;;;;;;;;4993274;28;20025;-37
2022/03/09 02:55:16;;;;;;;7.40;3.67;;;;;;;;;;4993315;28;20085;-37
2022/03/09 02:57:42;;;;;;;4.40;3.03;;;;;;;;;;4992836;28;20018;-36
2022/03/09 03:00:08;;;;;;;9.25;4.05;;;;;;;;;;4992855;28;20041;-36
2022/03/09 03:02:34;;;;;;;5.90;3.90;;;;;;;;;;4993299;28;20372;-36
2022/03/09 03:05:00;;;;;;;8.55;3.65;;;;;;;;;;5007904;28;20040;-36
2022/03/09 03:07:25;;;;;;;8.77;4.38;;;;;;;;;;4993171;28;20101;-37
2022/03/09 03:09:51;;;;;;;7.65;4.38;;;;;;;;;;4992794;28;20031;-37
2022/03/09 03:12:16;;;;;;;6.90;3.50;;;;;;;;;;4993063;28;20027;-37
2022/03/09 03:14:42;;;;;;;7.45;3.53;;;;;;;;;;4993082;28;20392;-36
2022/03/09 03:17:07;;;;;;;8.85;3.30;;;;;;;;;;4992585;28;20026;-36
2022/03/09 03:19:32;;;;;;;7.22;3.92;;;;;;;;;;4992531;28;20042;-37
2022/03/09 03:21:58;;;;;;;9.95;3.55;;;;;;;;;;4992596;28;20022;-36
2022/03/09 03:24:23;;;;;;;7.35;4.22;;;;;;;;;;4992508;28;20121;-36
2022/03/09 03:26:48;;;;;;;9.55;3.58;;;;;;;;;;4992598;28;20026;-36
2022/03/09 03:29:14;;;;;;;6.65;2.88;;;;;;;;;;4992684;28;20046;-36
2022/03/09 03:31:39;;;;;;;5.45;3.67;;;;;;;;;;4992367;28;20102;-36
2022/03/09 03:34:05;;;;;;;6.20;3.47;;;;;;;;;;4992718;28;20076;-36
2022/03/09 03:36:30;;;;;;;7.20;4.03;;;;;;;;;;4992630;28;20076;-36
2022/03/09 03:38:56;;;;;;;7.35;3.13;;;;;;;;;;4992356;28;20133;-36
2022/03/09 03:41:21;;;;;;;6.18;3.45;;;;;;;;;;4991064;28;20029;-36
2022/03/09 03:43:46;;;;;;;7.10;2.92;;;;;;;;;;4992526;28;20042;-36
2022/03/09 03:46:12;;;;;;;8.68;4.45;;;;;;;;;;4991939;28;20055;-36
2022/03/09 03:48:37;;;;;;;7.18;4.13;;;;;;;;;;4992365;28;20038;-37
2022/03/09 03:51:03;;;;;;;6.15;3.17;;;;;;;;;;4992051;28;20022;-37
2022/03/09 03:53:28;;;;;;;7.50;3.40;;;;;;;;;;4992229;28;20034;-36
2022/03/09 03:55:54;;;;;;;6.57;3.05;;;;;;;;;;4991331;28;20026;-37
2022/03/09 03:58:19;;;;;;;8.38;4.03;;;;;;;;;;4992059;28;20493;-36
2022/03/09 04:00:45;;;;;;;5.00;3.47;;;;;;;;;;4992254;28;20462;-36
2022/03/09 04:03:12;;;;;;;11.45;4.35;;;;;;;;;;4991833;28;20507;-36
2022/03/09 04:05:37;;;;;;;9.05;2.83;;;;;;;;;;4992080;28;20019;-37
2022/03/09 04:08:03;;;;;;;4.35;2.58;;;;;;;;;;4992097;28;20030;-36
2022/03/09 04:10:28;;;;;;;8.73;4.13;;;;;;;;;;4991923;28;20029;-36
2022/03/09 04:12:53;;;;;;;13.55;4.07;;;;;;;;;;4991818;28;20030;-37
2022/03/09 04:15:19;;;;;;;7.00;3.10;;;;;;;;;;4991976;28;20030;-37
2022/03/09 04:17:45;;;;;;;6.45;3.55;;;;;;;;;;4991857;28;20026;-36
2022/03/09 04:20:11;;;;;;;5.78;3.72;;;;;;;;;;4991960;28;20037;-37
2022/03/09 04:22:38;;;;;;;6.72;2.97;;;;;;;;;;4992020;28;20026;-36
2022/03/09 04:25:04;;;;;;;8.90;4.55;;;;;;;;;;4991801;28;20027;-37
2022/03/09 04:27:30;;;;;;;5.63;3.00;;;;;;;;;;4991715;28;20117;-37
2022/03/09 04:29:55;;;;;;;11.50;3.47;;;;;;;;;;4990355;28;20026;-36
2022/03/09 04:32:20;;;;;;;6.80;3.75;;;;;;;;;;4992063;28;20038;-37
2022/03/09 04:34:46;;;;;;;10.40;3.10;;;;;;;;;;4991733;28;20424;-37
2022/03/09 04:37:12;;;;;;;8.57;4.20;;;;;;;;;;4991863;28;20026;-38
2022/03/09 04:39:38;;;;;;;4.88;3.45;;;;;;;;;;4990331;28;20041;-36
2022/03/09 04:42:03;;;;;;;12.57;4.30;;;;;;;;;;4991546;28;20127;-36
2022/03/09 04:44:29;;;;;;;8.38;3.65;;;;;;;;;;4991449;28;20109;-36
2022/03/09 04:46:54;;;;;;;6.32;3.33;;;;;;;;;;4991845;28;20031;-36
2022/03/09 04:49:20;;;;;;;5.28;3.25;;;;;;;;;;4991926;28;20094;-37
2022/03/09 04:51:45;;;;;;;7.60;4.18;;;;;;;;;;4991641;28;20026;-36
2022/03/09 04:54:11;;;;;;;6.90;2.92;;;;;;;;;;4991496;28;20026;-36
2022/03/09 04:56:37;;;;;;;8.23;3.97;;;;;;;;;;4991773;28;20493;-36
2022/03/09 04:59:03;;;;;;;8.43;4.85;;;;;;;;;;4991651;28;20389;-36
2022/03/09 05:01:28;;;;;;;4.60;2.78;;;;;;;;;;4991552;28;20041;-36
2022/03/09 05:03:54;;;;;;;7.43;3.20;;;;;;;;;;4991332;28;20023;-36
2022/03/09 05:06:19;;;;;;;7.43;3.85;;;;;;;;;;4992431;28;20085;-36
2022/03/09 05:08:44;;;;;;;5.72;3.67;;;;;;;;;;4995127;28;20061;-36
2022/03/09 05:11:10;;;;;;;7.13;3.30;;;;;;;;;;4994923;28;20121;-37
2022/03/09 05:13:35;;;;;;;8.90;3.47;;;;;;;;;;4995052;28;20037;-37
2022/03/09 05:16:01;;;;;;;8.90;3.47;;;;;;;;;;4994948;28;20038;-37
2022/03/09 05:18:26;;;;;;;8.48;3.40;;;;;;;;;;4995005;28;20046;-37
2022/03/09 05:20:52;;;;;;;8.65;4.40;;;;;;;;;;4995140;28;20027;-37
2022/03/09 05:23:17;;;;;;;10.95;4.10;;;;;;;;;;4995163;28;20461;-37
2022/03/09 05:25:43;;;;;;;7.85;3.97;;;;;;;;;;4995022;28;20034;-36
2022/03/09 05:28:08;;;;;;;7.15;3.00;;;;;;;;;;4994668;28;20073;-37
2022/03/09 05:30:34;;;;;;;6.38;3.90;;;;;;;;;;4994794;28;20027;-37
2022/03/09 05:32:59;;;;;;;13.15;3.80;;;;;;;;;;4994528;28;20018;-36
2022/03/09 05:35:24;;;;;;;8.65;3.03;;;;;;;;;;4994960;28;20030;-37
2022/03/09 05:37:50;;;;;;;7.50;4.22;;;;;;;;;;4994777;28;20381;-36
2022/03/09 05:40:15;;;;;;;6.70;3.75;;;;;;;;;;4994707;28;20065;-36
2022/03/09 05:42:46;;;;;;;15.07;4.03;;;;;;;;;;4994415;28;20049;-36
2022/03/09 05:45:12;;;;;;;7.88;3.55;;;;;;;;;;4994372;28;20461;-36
2022/03/09 05:47:38;;;;;;;6.38;3.33;;;;;;;;;;4994383;28;20037;-36
2022/03/09 05:50:04;;;;;;;6.40;3.45;;;;;;;;;;5009285;28;20050;-36
2022/03/09 05:52:30;;;;;;;7.40;4.47;;;;;;;;;;4994344;28;20045;-36
2022/03/09 05:54:55;;;;;;;10.05;4.35;;;;;;;;;;4994167;28;20026;-36
2022/03/09 05:57:25;;;;;;;10.15;3.75;;;;;;;;;;4994546;28;20121;-36
2022/03/09 05:59:50;;;;;;;8.05;3.38;;;;;;;;;;4993969;28;20042;-36
2022/03/09 06:02:16;;;;;;;7.93;4.45;;;;;;;;;;4994036;28;20040;-40
2022/03/09 06:04:45;;;;;;;7.75;3.58;;;;;;;;;;4993974;28;20046;-36
2022/03/09 06:07:11;;;;;;;8.35;3.33;;;;;;;;;;4993887;28;20461;-40
2022/03/09 06:09:36;;;;;;;5.95;3.80;;;;;;;;;;4994396;28;20084;-36
2022/03/09 06:12:02;;;;;;;4.57;3.25;;;;;;;;;;4994408;28;20421;-37
2022/03/09 06:14:27;;;;;;;5.00;3.13;;;;;;;;;;4994351;28;20481;-37
2022/03/09 06:16:53;;;;;;;5.20;2.72;;;;;;;;;;4994467;28;20061;-37
2022/03/09 06:19:18;;;;;;;7.07;3.47;;;;;;;;;;4993378;28;20129;-36
2022/03/09 06:21:44;;;;;;;9.23;4.15;;;;;;;;;;4994032;28;20030;-36
2022/03/09 06:24:11;;;;;;;7.47;3.90;;;;;;;;;;4993927;28;20625;-36
2022/03/09 06:26:37;;;;;;;6.72;3.05;;;;;;;;;;4993671;28;20087;-36
2022/03/09 06:29:03;;;;;;;6.65;3.17;;;;;;;;;;4993597;28;20034;-36
2022/03/09 06:31:29;;;;;;;5.88;3.13;;;;;;;;;;4993635;28;20018;-36
2022/03/09 06:33:55;;;;;;;9.60;4.45;;;;;;;;;;4993251;28;20053;-36
2022/03/09 06:36:21;;;;;;;9.18;4.43;;;;;;;;;;4993583;28;20065;-36
2022/03/09 06:38:47;;;;;;;8.15;3.65;;;;;;;;;;4993338;28;20049;-37
2022/03/09 06:41:13;;;;;;;12.20;2.22;;;;;;;;;;4992182;28;20023;-36
2022/03/09 06:43:38;;;;;;;11.20;4.82;;;;;;;;;;4993670;28;20034;-36
2022/03/09 06:46:04;;;;;;;3.80;2.85;;;;;;;;;;5008186;28;20485;-36
2022/03/09 06:48:30;;;;;;;6.47;2.53;;;;;;;;;;4993558;28;20026;-37
2022/03/09 06:50:55;;;;;;;9.85;5.20;;;;;;;;;;4993068;28;20026;-36
2022/03/09 06:53:21;;;;;;;6.05;3.13;;;;;;;;;;4993541;28;20038;-36
2022/03/09 06:55:46;;;;;;;4.90;3.25;;;;;;;;;;4993421;28;20027;-36
2022/03/09 06:58:12;;;;;;;5.05;3.42;;;;;;;;;;4992779;28;20030;-37
2022/03/09 07:00:37;;;;;;;6.63;2.97;;;;;;;;;;4991988;28;20054;-36
2022/03/09 07:03:05;;;;;;;9.45;2.80;;;;;;;;;;4992933;28;20050;-36
2022/03/09 07:05:34;;;;;;;4.95;2.92;;;;;;;;;;4993267;28;20377;-36
2022/03/09 07:08:00;;;;;;;4.82;3.17;;;;;;;;;;4992757;28;20118;-36
2022/03/09 07:10:26;;;;;;;4.68;3.10;;;;;;;;;;4993175;28;20091;-37
2022/03/09 07:12:52;;;;;;;7.97;3.83;;;;;;;;;;4992747;28;20033;-36
2022/03/09 07:15:17;;;;;;;10.63;4.20;;;;;;;;;;5007842;28;20030;-36
2022/03/09 07:17:45;;;;;;;10.00;3.35;;;;;;;;;;4992710;28;20138;-36
2022/03/09 07:20:11;;;;;;;9.23;4.70;;;;;;;;;;5007454;28;20039;-36
2022/03/09 07:22:38;;;;;;;5.80;2.45;;;;;;;;;;4992712;28;20033;-36
2022/03/09 07:25:03;;;;;;;6.55;3.72;;;;;;;;;;4992556;28;20030;-36
2022/03/09 07:27:29;;;;;;;9.68;3.53;;;;;;;;;;4992810;28;20030;-36
2022/03/09 07:29:54;;;;;;;7.28;3.90;;;;;;;;;;4992345;28;20109;-36
2022/03/09 07:32:20;;;;;;;6.28;3.88;;;;;;;;;;4992800;28;20030;-36
2022/03/09 07:34:46;;;;;;;7.00;3.53;;;;;;;;;;5007589;28;20034;-36
2022/03/09 07:37:11;;;;;;;5.22;3.50;;;;;;;;;;4992357;28;20081;-36
2022/03/09 07:39:37;;;;;;;7.60;3.45;;;;;;;;;;4992242;28;20034;-36
2022/03/09 07:42:03;;;;;;;4.05;2.78;;;;;;;;;;4992274;28;20031;-37
2022/03/09 07:44:29;;;;;;;5.88;3.22;;;;;;;;;;4992112;28;20022;-37
2022/03/09 07:46:55;;;;;;;4.60;3.03;;;;;;;;;;4992212;28;20042;-36
2022/03/09 07:49:20;;;;;;;7.15;3.70;;;;;;;;;;4992502;28;20393;-36
2022/03/09 07:51:46;;;;;;;12.13;3.95;;;;;;;;;;4992570;28;20096;-36
2022/03/09 07:54:11;;;;;;;4.93;3.92;;;;;;;;;;4992087;28;20469;-36
2022/03/09 07:56:38;;;;;;;4.63;3.03;;;;;;;;;;4992471;28;20113;-36
2022/03/09 07:59:05;;;;;;;8.23;3.50;;;;;;;;;;4992178;28;20125;-36
2022/03/09 08:01:31;;;;;;;3.90;3.20;;;;;;;;;;4992103;28;20031;-36
2022/03/09 08:03:56;;;;;;;5.13;2.95;;;;;;;;;;4991962;28;20112;-36
2022/03/09 08:06:22;;;;;;;6.22;3.72;;;;;;;;;;4991983;28;20173;-37
2022/03/09 08:08:47;;;;;;;4.55;2.70;;;;;;;;;;4992236;28;20045;-37
2022/03/09 08:11:13;;;;;;;9.85;3.08;;;;;;;;;;4991880;28;20034;-36
2022/03/09 08:13:39;;;;;;;5.70;3.15;;;;;;;;;;4992298;28;20492;-36
2022/03/09 08:16:04;;;;;;;6.88;3.13;;;;;;;;;;4992073;28;20030;-37
2022/03/09 08:18:31;;;;;;;10.10;3.45;;;;;;;;;;4991755;28;20458;-36
2022/03/09 08:20:56;;;;;;;5.05;2.50;;;;;;;;;;4992140;28;20034;-37
2022/03/09 08:23:23;;;;;;;7.97;3.55;;;;;;;;;;4992126;28;20062;-36
2022/03/09 08:25:49;;;;;;;7.15;3.55;;;;;;;;;;4991846;28;20026;-36
2022/03/09 08:28:15;;;;;;;4.18;2.75;;;;;;;;;;4991702;28;20030;-36
2022/03/09 08:30:41;;;;;;;7.65;3.15;;;;;;;;;;4991832;28;20034;-36
2022/03/09 08:33:07;;;;;;;7.82;3.20;;;;;;;;;;4991843;28;20423;-37
2022/03/09 08:35:33;;;;;;;9.00;4.07;;;;;;;;;;4992055;28;20031;-36
2022/03/09 08:37:58;;;;;;;11.13;3.53;;;;;;;;;;4991671;28;20023;-36
2022/03/09 08:40:24;;;;;;;5.60;3.03;;;;;;;;;;4992046;28;20383;-36
2022/03/09 08:42:49;;;;;;;5.10;3.13;;;;;;;;;;4995157;28;20030;-36
2022/03/09 08:45:15;;;;;;;7.30;3.92;;;;;;;;;;4995523;28;20202;-40
2022/03/09 08:47:40;;;;;;;6.65;3.15;;;;;;;;;;4995553;28;20113;-36
2022/03/09 08:50:07;;;;;;;9.57;2.92;;;;;;;;;;4995383;28;20042;-37
2022/03/09 08:52:32;;;;;;;6.72;3.20;;;;;;;;;;4994209;28;20069;-36
2022/03/09 08:54:58;;;;;;;12.48;3.40;;;;;;;;;;4995619;28;20038;-36
2022/03/09 08:57:23;;;;;;;10.55;2.85;;;;;;;;;;4995712;28;20026;-37
2022/03/09 08:59:49;;;;;;;4.82;2.72;;;;;;;;;;4995183;28;20081;-36
2022/03/09 09:02:14;;;;;;;6.07;3.17;;;;;;;;;;4995278;28;20049;-37
2022/03/09 09:04:40;;;;;;;5.53;3.38;;;;;;;;;;5010368;28;20038;-36
2022/03/09 09:07:06;;;;;;;6.25;3.63;;;;;;;;;;4995208;28;20019;-36
2022/03/09 09:09:32;;;;;;;10.18;3.53;;;;;;;;;;4995418;28;20037;-37
2022/03/09 09:11:59;;;;;;;6.53;4.20;;;;;;;;;;4995312;28;20389;-37
2022/03/09 09:14:25;;;;;;;4.32;2.95;;;;;;;;;;4995034;28;20428;-37
2022/03/09 09:16:50;;;;;;;8.13;3.05;;;;;;;;;;4995019;28;20026;-36
2022/03/09 09:19:16;;;;;;;7.10;4.10;;;;;;;;;;4993642;28;20090;-36
2022/03/09 09:21:41;;;;;;;7.30;3.08;;;;;;;;;;4994863;28;20058;-36
2022/03/09 09:24:07;;;;;;;5.15;3.67;;;;;;;;;;4995151;28;20046;-37
2022/03/09 09:26:32;;;;;;;6.65;3.33;;;;;;;;;;4993506;28;20397;-36
2022/03/09 09:28:58;;;;;;;9.85;3.53;;;;;;;;;;4994685;28;20034;-37
2022/03/09 09:31:23;;;;;;;5.57;2.85;;;;;;;;;;5010153;28;20034;-36
2022/03/09 09:33:49;;;;;;;4.43;2.70;;;;;;;;;;4994956;28;20520;-36
2022/03/09 09:36:15;;;;;;;6.53;3.75;;;;;;;;;;4994600;28;20034;-36
2022/03/09 09:38:41;;;;;;;9.55;3.97;;;;;;;;;;4994527;28;20117;-36
2022/03/09 09:41:10;;;;;;;11.63;4.95;;;;;;;;;;4994543;28;20109;-37
2022/03/09 09:43:37;;;;;;;8.82;4.85;;;;;;;;;;4994594;28;20054;-37
2022/03/09 09:46:03;;;;;;;8.68;4.88;;;;;;;;;;4992951;28;20477;-36
2022/03/09 09:48:28;;;;;;;6.00;3.15;;;;;;;;;;4994447;28;20079;-37
2022/03/09 09:50:54;;;;;;;8.98;4.70;;;;;;;;;;4994373;28;20097;-37
2022/03/09 09:53:22;;;;;;;10.18;3.50;;;;;;;;;;4993064;28;20038;-37
2022/03/09 09:55:47;;;;;;;4.55;3.08;;;;;;;;;;4994319;28;20061;-37
2022/03/09 09:58:14;;;;;;;9.88;4.47;;;;;;;;;;4994295;28;20532;-36
2022/03/09 10:00:39;;;;;;;6.22;3.33;;;;;;;;;;4994264;28;20022;-37
2022/03/09 10:03:05;;;;;;;7.20;3.75;;;;;;;;;;4994260;28;20023;-37
2022/03/09 10:05:31;;;;;;;10.43;4.40;;;;;;;;;;4994228;28;20104;-36
2022/03/09 10:08:02;;;;;;;8.20;4.93;;;;;;;;;;4994284;28;20030;-37
2022/03/09 10:10:28;;;;;;;7.15;3.17;;;;;;;;;;4993974;28;20040;-37
2022/03/09 10:13:08;;;;;;;14.02;5.78;;;;;;;;;;4994122;28;20022;-36
2022/03/09 10:15:34;;;;;;;8.13;4.40;;;;;;;;;;4993953;28;20026;-36
2022/03/09 10:18:10;;;;;;;8.75;3.90;;;;;;;;;;4993928;28;20030;-36
2022/03/09 10:20:36;;;;;;;9.93;5.05;;;;;;;;;;4993852;28;20500;-37
2022/03/09 10:23:02;;;;;;;8.13;4.47;;;;;;;;;;4993728;28;20026;-36
2022/03/09 10:25:27;;;;;;;11.27;4.97;;;;;;;;;;4993948;28;20037;-36
2022/03/09 10:27:53;;;;;;;9.43;4.18;;;;;;;;;;4994006;28;20018;-36
2022/03/09 10:30:19;;;;;;;9.07;3.47;;;;;;;;;;4993655;28;20085;-36
2022/03/09 10:32:45;;;;;;;10.32;4.63;;;;;;;;;;4993670;28;20080;-36
2022/03/09 10:35:11;;;;;;;7.97;3.75;;;;;;;;;;4993814;28;20042;-36
2022/03/09 10:37:37;;;;;;;14.95;4.32;;;;;;;;;;4993440;28;20030;-37
2022/03/09 10:40:13;;;;;;;8.55;4.75;;;;;;;;;;4993394;28;20053;-36
2022/03/09 10:42:39;;;;;;;10.25;4.47;;;;;;;;;;4993694;28;20105;-36
2022/03/09 10:45:07;;;;;;;10.15;4.93;;;;;;;;;;4993254;28;20883;-36
2022/03/09 10:47:43;;;;;;;9.15;4.47;;;;;;;;;;4993642;28;20030;-37
2022/03/09 10:50:19;;;;;;;10.15;4.60;;;;;;;;;;4993196;28;20042;-36
2022/03/09 10:52:49;;;;;;;8.20;4.28;;;;;;;;;;4993378;28;20113;-37
2022/03/09 10:55:31;;;;;;;10.15;5.10;;;;;;;;;;4993172;28;20058;-36
2022/03/09 10:58:09;;;;;;;11.02;5.10;;;;;;;;;;4993378;28;20133;-36
2022/03/09 11:00:39;;;;;;;10.13;4.40;;;;;;;;;;4993360;28;20042;-36
2022/03/09 11:03:09;;;;;;;8.07;4.25;;;;;;;;;;4993043;28;20037;-36
2022/03/09 11:05:46;;;;;;;14.18;5.63;;;;;;;;;;4993046;28;20389;-37
2022/03/09 11:08:12;;;;;;;8.75;4.60;;;;;;;;;;4993088;28;20396;-36
2022/03/09 11:10:37;;;;;;;11.02;5.72;;;;;;;;;;4992963;28;20038;-36
2022/03/09 11:13:03;;;;;;;15.18;4.45;;;;;;;;;;5007925;28;20397;-36
2022/03/09 11:15:29;;;;;;;10.45;4.25;;;;;;;;;;4993031;28;20023;-36
2022/03/09 11:17:55;;;;;;;10.95;6.13;;;;;;;;;;4993053;28;20026;-38
2022/03/09 11:20:20;;;;;;;12.75;5.60;;;;;;;;;;4992546;28;20034;-36
2022/03/09 11:22:46;;;;;;;5.93;4.13;;;;;;;;;;4993020;28;20371;-36
2022/03/09 11:25:11;;;;;;;10.95;3.85;;;;;;;;;;4992628;28;20025;-36
2022/03/09 11:27:45;;;;;;;9.68;5.60;;;;;;;;;;4992525;28;20026;-36
2022/03/09 11:30:24;;;;;;;13.10;5.00;;;;;;;;;;4992737;28;20032;-36
2022/03/09 11:32:50;;;;;;;11.10;5.78;;;;;;;;;;4991315;28;20137;-36
2022/03/09 11:35:32;;;;;;;22.92;5.53;;;;;;;;;;4992717;28;20065;-36
2022/03/09 11:37:57;;;;;;;13.23;6.53;;;;;;;;;;4992399;28;20073;-36
2022/03/09 11:40:23;;;;;;;12.98;5.13;;;;;;;;;;4992348;28;20058;-37
2022/03/09 11:42:48;;;;;;;6.63;4.05;;;;;;;;;;4992363;28;20084;-36
2022/03/09 11:45:14;;;;;;;10.23;4.53;;;;;;;;;;4992110;28;20141;-36
2022/03/09 11:47:58;;;;;;;13.88;6.28;;;;;;;;;;4992614;28;20042;-36
2022/03/09 11:50:25;;;;;;;9.82;5.15;;;;;;;;;;4992232;28;20046;-37
2022/03/09 11:53:10;;;;;;;13.38;5.35;;;;;;;;;;4992275;28;20015;-37
2022/03/09 11:55:36;;;;;;;11.75;5.68;;;;;;;;;;4991919;28;20046;-36
2022/03/09 11:58:04;;;;;;;13.13;5.35;;;;;;;;;;4991964;28;20018;-37
2022/03/09 12:00:30;;;;;;;8.00;4.47;;;;;;;;;;4992158;28;20038;-36
2022/03/09 12:02:56;;;;;;;8.02;4.32;;;;;;;;;;4992083;28;20494;-36
2022/03/09 12:05:22;;;;;;;13.82;5.85;;;;;;;;;;4992034;28;20061;-37
2022/03/09 12:07:48;;;;;;;12.15;5.20;;;;;;;;;;4992297;28;20116;-36
2022/03/09 12:10:14;;;;;;;11.40;5.78;;;;;;;;;;4991858;28;20038;-37
2022/03/09 12:12:59;;;;;;;10.52;5.85;;;;;;;;;;4992096;28;20037;-37
2022/03/09 12:15:24;;;;;;;11.02;4.35;;;;;;;;;;4991757;28;20125;-36
2022/03/09 12:17:50;;;;;;;12.10;5.43;;;;;;;;;;4991489;28;20097;-36
2022/03/09 12:20:23;;;;;;;12.20;5.70;;;;;;;;;;4991797;28;20485;-37
2022/03/09 12:22:59;;;;;;;18.80;7.00;;;;;;;;;;4991980;28;20392;-36
2022/03/09 12:25:33;;;;;;;15.38;6.40;;;;;;;;;;4992174;28;20045;-36
2022/03/09 12:28:19;;;;;;;13.07;5.97;;;;;;;;;;4992150;28;20425;-36
2022/03/09 12:30:47;;;;;;;18.10;7.97;;;;;;;;;;4991865;28;20027;-36
2022/03/09 12:33:34;;;;;;;13.13;6.95;;;;;;;;;;4991904;28;20068;-36
2022/03/09 12:36:06;;;;;;;11.45;6.93;;;;;;;;;;4991489;28;20050;-36
2022/03/09 12:38:34;;;;;;;15.73;6.18;;;;;;;;;;4991564;28;20031;-37
2022/03/09 12:41:00;;;;;;;15.18;8.43;;;;;;;;;;4991943;28;20384;-37
2022/03/09 12:43:26;;;;;;;9.48;6.10;;;;;;;;;;4991767;28;20034;-36
2022/03/09 12:45:52;;;;;;;17.67;6.85;;;;;;;;;;4991563;28;20062;-38
2022/03/09 12:48:21;;;;;;;10.60;6.53;;;;;;;;;;4991878;28;20424;-36
2022/03/09 12:50:47;;;;;;;15.50;6.28;;;;;;;;;;4991725;28;20041;-36
2022/03/09 12:53:20;;;;;;;16.30;6.78;;;;;;;;;;4991513;28;20030;-37
2022/03/09 12:55:49;;;;;;;20.33;6.60;;;;;;;;;;4991729;28;20026;-36
2022/03/09 12:58:22;;;;;;;15.30;7.43;;;;;;;;;;4991384;28;20018;-38
2022/03/09 13:00:47;;;;;;;14.18;6.80;;;;;;;;;;4991777;28;20100;-36
2022/03/09 13:03:13;;;;;;;15.95;5.85;;;;;;;;;;4991476;28;20026;-36
2022/03/09 13:05:39;;;;;;;13.75;5.50;;;;;;;;;;4990289;28;20041;-37
2022/03/09 13:08:08;;;;;;;9.88;5.93;;;;;;;;;;4991324;28;20365;-36
2022/03/09 13:10:45;;;;;;;17.40;7.20;;;;;;;;;;4991835;28;20052;-36
2022/03/09 13:13:11;;;;;;;19.27;6.97;;;;;;;;;;4991464;28;20038;-36
2022/03/09 13:15:38;;;;;;;11.45;6.57;;;;;;;;;;4991737;28;20358;-36
2022/03/09 13:18:08;;;;;;;13.18;6.25;;;;;;;;;;4991198;28;20053;-36
2022/03/09 13:20:34;;;;;;;10.82;6.47;;;;;;;;;;4991720;28;20042;-36
2022/03/09 13:23:00;;;;;;;18.35;6.90;;;;;;;;;;4991652;28;20050;-37
2022/03/09 13:25:30;;;;;;;15.88;5.57;;;;;;;;;;4991377;28;20089;-36
2022/03/09 13:28:04;;;;;;;9.45;4.95;;;;;;;;;;4992773;28;20030;-36
2022/03/09 13:30:30;;;;;;;14.68;6.20;;;;;;;;;;4994823;28;20038;-37
2022/03/09 13:32:56;;;;;;;11.48;4.68;;;;;;;;;;4994773;28;20077;-37
2022/03/09 13:35:23;;;;;;;11.50;5.07;;;;;;;;;;4994575;28;20026;-37
2022/03/09 13:37:58;;;;;;;14.35;5.57;;;;;;;;;;4994593;28;20022;-37
2022/03/09 13:40:24;;;;;;;15.55;6.40;;;;;;;;;;4994767;28;20038;-37
2022/03/09 13:42:50;;;;;;;17.77;6.25;;;;;;;;;;4994512;28;20011;-37
2022/03/09 13:45:17;;;;;;;15.50;6.18;;;;;;;;;;4994506;28;20382;-36
2022/03/09 13:47:48;;;;;;;12.93;6.90;;;;;;;;;;4994507;28;20077;-36
2022/03/09 13:50:28;;;;;;;12.38;5.72;;;;;;;;;;4994331;28;20041;-36
2022/03/09 13:53:07;;;;;;;14.93;6.30;;;;;;;;;;4994654;28;20033;-36
2022/03/09 13:55:39;;;;;;;12.82;6.50;;;;;;;;;;4994725;28;20053;-36
2022/03/09 13:58:06;;;;;;;11.30;5.60;;;;;;;;;;4994361;28;20449;-37
2022/03/09 14:00:36;;;;;;;11.57;6.03;;;;;;;;;;4994584;28;20022;-37
2022/03/09 14:03:10;;;;;;;16.38;5.75;;;;;;;;;;4994150;28;20038;-36
2022/03/09 14:05:37;;;;;;;15.20;6.05;;;;;;;;;;4994147;28;20030;-37
2022/03/09 14:08:03;;;;;;;13.15;6.35;;;;;;;;;;4994018;28;20062;-36
2022/03/09 14:10:32;;;;;;;13.95;6.40;;;;;;;;;;4994113;28;20058;-37
2022/03/09 14:13:05;;;;;;;7.13;5.03;;;;;;;;;;4994045;28;20488;-37
2022/03/09 14:15:31;;;;;;;15.82;6.07;;;;;;;;;;4993994;28;20034;-37
2022/03/09 14:18:00;;;;;;;14.30;7.05;;;;;;;;;;4993945;28;20029;-37
2022/03/09 14:20:26;;;;;;;10.90;5.63;;;;;;;;;;4993756;28;20501;-37
2022/03/09 14:22:52;;;;;;;16.17;6.10;;;;;;;;;;4993886;28;20018;-37
2022/03/09 14:25:20;;;;;;;15.65;6.70;;;;;;;;;;4993985;28;20061;-36
2022/03/09 14:27:47;;;;;;;15.13;6.57;;;;;;;;;;4993714;28;20077;-37
2022/03/09 14:30:14;;;;;;;15.55;5.05;;;;;;;;;;4993636;28;20069;-36
2022/03/09 14:32:40;;;;;;;12.30;6.18;;;;;;;;;;4993641;28;20109;-36
2022/03/09 14:35:06;;;;;;;13.05;6.00;;;;;;;;;;5008719;28;20544;-36
2022/03/09 14:37:32;;;;;;;11.10;6.13;;;;;;;;;;4993833;28;20069;-36
2022/03/09 14:39:57;;;;;;;14.57;6.47;;;;;;;;;;4992797;28;20050;-37